createdAt,value
2023-02-14T00:01:12.082Z,8.10
2023-02-14T00:03:39.954Z,8.63
2023-02-14T00:06:12.680Z,7.93
2023-02-14T00:08:44.176Z,8.48
2023-02-14T00:11:13.623Z,8.27
2023-02-14T00:14:00.944Z,7.80
2023-02-14T00:16:28.323Z,7.88
2023-02-14T00:19:04.560Z,8.02
2023-02-14T00:21:36.602Z,8.60
2023-02-14T00:24:05.492Z,7.90
2023-02-14T00:26:33.596Z,7.43
2023-02-14T00:29:00.942Z,7.93
2023-02-14T00:31:28.303Z,8.18
2023-02-14T00:33:55.724Z,7.60
2023-02-14T00:36:23.120Z,8.52
2023-02-14T00:38:50.417Z,8.25
2023-02-14T00:41:20.598Z,8.00
2023-02-14T00:43:49.478Z,8.18
2023-02-14T00:46:18.698Z,7.93
2023-02-14T00:48:46.346Z,7.95
2023-02-14T00:51:14.827Z,7.90
2023-02-14T00:53:42.412Z,8.25
2023-02-14T00:56:09.773Z,7.68
2023-02-14T00:58:37.435Z,8.00
2023-02-14T01:01:05.037Z,8.43
2023-02-14T01:03:32.560Z,8.40
2023-02-14T01:06:00.219Z,7.35
2023-02-14T01:08:27.557Z,7.82
2023-02-14T01:10:54.993Z,7.95
2023-02-14T01:13:22.903Z,7.57
2023-02-14T01:15:52.070Z,7.35
2023-02-14T01:18:20.024Z,7.40
2023-02-14T01:20:47.426Z,7.55
2023-02-14T01:23:14.944Z,8.07
2023-02-14T01:25:42.164Z,7.80
2023-02-14T01:28:09.426Z,7.90
2023-02-14T01:30:37.167Z,7.53
2023-02-14T01:33:04.520Z,7.55
2023-02-14T01:35:31.818Z,8.00
2023-02-14T01:37:59.062Z,8.10
2023-02-14T01:40:26.346Z,6.97
2023-02-14T01:42:53.589Z,7.93
2023-02-14T01:45:26.858Z,8.40
2023-02-14T01:47:56.576Z,7.63
2023-02-14T01:50:30.376Z,7.68
2023-02-14T01:53:11.703Z,7.93
2023-02-14T01:55:47.004Z,7.38
2023-02-14T01:58:22.420Z,8.20
2023-02-14T02:00:59.558Z,7.43
2023-02-14T02:03:37.314Z,7.85
2023-02-14T02:06:22.246Z,7.75
2023-02-14T02:09:21.958Z,7.95
2023-02-14T02:11:49.684Z,7.03
2023-02-14T02:14:21.384Z,7.88
2023-02-14T02:16:57.589Z,7.68
2023-02-14T02:19:52.020Z,8.02
2023-02-14T02:22:56.658Z,7.38
2023-02-14T02:25:44.954Z,7.15
2023-02-14T02:28:39.778Z,7.15
2023-02-14T02:31:27.881Z,7.60
2023-02-14T02:34:29.269Z,6.68
2023-02-14T02:37:22.695Z,7.00
2023-02-14T02:40:04.815Z,7.15
2023-02-14T02:42:50.792Z,7.03
2023-02-14T02:45:31.298Z,6.60
2023-02-14T02:48:10.646Z,6.68
2023-02-14T02:51:05.199Z,7.38
2023-02-14T02:53:54.790Z,7.28
2023-02-14T02:57:01.857Z,6.85
2023-02-14T02:59:34.752Z,7.00
2023-02-14T03:02:10.919Z,6.95
2023-02-14T03:04:54.803Z,6.97
2023-02-14T03:07:37.558Z,6.53
2023-02-14T03:10:21.770Z,6.72
2023-02-14T03:13:13.689Z,6.38
2023-02-14T03:15:55.707Z,7.57
2023-02-14T03:19:03.268Z,6.95
2023-02-14T03:21:52.381Z,6.95
2023-02-14T03:24:25.235Z,6.60
2023-02-14T03:27:16.983Z,6.53
2023-02-14T03:29:52.924Z,7.40
2023-02-14T03:32:32.118Z,6.82
2023-02-14T03:35:28.756Z,7.05
2023-02-14T03:38:09.680Z,7.15
2023-02-14T03:40:44.872Z,7.15
2023-02-14T03:43:37.612Z,7.15
2023-02-14T03:46:27.204Z,7.50
2023-02-14T03:48:57.900Z,6.90
2023-02-14T03:51:27.009Z,6.80
2023-02-14T03:53:58.754Z,7.38
2023-02-14T03:56:48.278Z,7.20
2023-02-14T03:59:23.164Z,7.53
2023-02-14T04:02:22.092Z,7.45
2023-02-14T04:04:50.718Z,7.63
2023-02-14T04:07:23.262Z,7.45
2023-02-14T04:09:51.031Z,7.65
2023-02-14T04:12:32.332Z,7.47
2023-02-14T04:15:04.889Z,7.50
2023-02-14T04:17:50.682Z,7.20
2023-02-14T04:20:18.021Z,7.03
2023-02-14T04:22:46.439Z,7.47
2023-02-14T04:25:14.459Z,7.70
2023-02-14T04:27:41.972Z,7.32
2023-02-14T04:30:10.643Z,7.53
2023-02-14T04:32:38.796Z,7.53
2023-02-14T04:35:06.536Z,6.80
2023-02-14T04:37:33.931Z,7.68
2023-02-14T04:40:01.240Z,7.75
2023-02-14T04:42:28.710Z,7.75
2023-02-14T04:44:56.234Z,7.75
2023-02-14T04:47:23.595Z,7.82
2023-02-14T04:49:50.844Z,7.80
2023-02-14T04:52:18.226Z,7.85
2023-02-14T04:54:45.467Z,8.10
2023-02-14T04:57:12.751Z,8.18
2023-02-14T04:59:39.972Z,7.82
2023-02-14T05:02:07.239Z,7.97
2023-02-14T05:04:34.506Z,7.30
2023-02-14T05:07:01.823Z,7.60
2023-02-14T05:09:29.378Z,7.53
2023-02-14T05:11:56.625Z,6.95
2023-02-14T05:14:23.924Z,7.30
2023-02-14T05:16:51.204Z,8.05
2023-02-14T05:19:18.621Z,7.18
2023-02-14T05:21:45.910Z,7.43
2023-02-14T05:24:13.384Z,7.07
2023-02-14T05:26:41.059Z,7.82
2023-02-14T05:29:08.423Z,7.07
2023-02-14T05:31:35.884Z,7.63
2023-02-14T05:34:03.234Z,7.13
2023-02-14T05:36:31.045Z,7.07
2023-02-14T05:38:58.316Z,7.40
2023-02-14T05:41:25.527Z,7.30
2023-02-14T05:43:52.763Z,7.78
2023-02-14T05:46:19.977Z,7.30
2023-02-14T05:48:47.239Z,7.88
2023-02-14T05:51:14.469Z,7.32
2023-02-14T05:53:42.371Z,7.50
2023-02-14T05:56:09.900Z,7.50
2023-02-14T05:58:37.229Z,7.10
2023-02-14T06:01:04.664Z,7.85
2023-02-14T06:03:31.930Z,7.85
2023-02-14T06:05:59.208Z,7.68
2023-02-14T06:08:26.552Z,7.35
2023-02-14T06:10:53.965Z,7.68
2023-02-14T06:13:21.244Z,7.40
2023-02-14T06:15:48.558Z,8.20
2023-02-14T06:18:15.864Z,8.48
2023-02-14T06:20:43.155Z,7.75
2023-02-14T06:23:11.075Z,7.70
2023-02-14T06:25:38.566Z,7.75
2023-02-14T06:28:06.598Z,7.95
2023-02-14T06:30:33.915Z,8.63
2023-02-14T06:33:01.292Z,8.57
2023-02-14T06:35:28.697Z,8.77
2023-02-14T06:37:55.939Z,8.98
2023-02-14T06:40:24.056Z,8.65
2023-02-14T06:42:51.312Z,9.38
2023-02-14T06:45:18.708Z,10.02
2023-02-14T06:47:46.534Z,8.77
2023-02-14T06:50:13.858Z,9.45
2023-02-14T06:52:42.693Z,9.60
2023-02-14T06:55:13.176Z,9.77
2023-02-14T06:57:40.640Z,9.63
2023-02-14T07:00:08.657Z,10.45
2023-02-14T07:02:36.007Z,9.63
2023-02-14T07:05:03.332Z,9.05
2023-02-14T07:07:30.697Z,10.13
2023-02-14T07:09:58.077Z,10.90
2023-02-14T07:12:25.385Z,10.88
2023-02-14T07:14:52.642Z,11.85
2023-02-14T07:17:19.927Z,12.23
2023-02-14T07:19:47.192Z,11.45
2023-02-14T07:22:14.462Z,11.63
2023-02-14T07:24:42.542Z,11.43
2023-02-14T07:27:09.931Z,11.55
2023-02-14T07:29:37.464Z,12.10
2023-02-14T07:32:05.000Z,12.32
2023-02-14T07:34:33.033Z,13.07
2023-02-14T07:37:00.710Z,12.23
2023-02-14T07:39:28.504Z,12.70
2023-02-14T07:41:55.766Z,13.00
2023-02-14T07:44:23.172Z,12.02
2023-02-14T07:46:50.501Z,13.05
2023-02-14T07:49:17.883Z,12.95
2023-02-14T07:51:45.211Z,12.63
2023-02-14T07:54:12.569Z,12.38
2023-02-14T07:56:39.826Z,13.30
2023-02-14T07:59:07.098Z,13.57
2023-02-14T08:01:34.463Z,12.75
2023-02-14T08:04:01.755Z,13.55
2023-02-14T08:06:28.949Z,13.10
2023-02-14T08:08:56.372Z,12.63
2023-02-14T08:11:42.486Z,12.98
2023-02-14T08:14:09.697Z,13.15
2023-02-14T08:16:38.321Z,13.10
2023-02-14T08:19:05.810Z,14.50
2023-02-14T08:21:33.034Z,14.32
2023-02-14T08:24:00.480Z,13.25
2023-02-14T08:26:27.763Z,13.00
2023-02-14T08:28:55.080Z,13.20
2023-02-14T08:31:34.344Z,12.90
2023-02-14T08:34:03.014Z,12.85
2023-02-14T08:36:30.252Z,12.82
2023-02-14T08:38:57.766Z,13.07
2023-02-14T08:41:25.103Z,13.15
2023-02-14T08:43:52.483Z,13.30
2023-02-14T08:46:19.880Z,13.23
2023-02-14T08:48:47.244Z,13.40
2023-02-14T08:51:15.968Z,13.55
2023-02-14T08:53:44.214Z,14.02
2023-02-14T08:56:13.666Z,13.55
2023-02-14T08:58:41.427Z,13.57
2023-02-14T09:01:19.002Z,13.90
2023-02-14T09:03:46.533Z,14.43
2023-02-14T09:06:17.389Z,14.30
2023-02-14T09:08:46.529Z,13.48
2023-02-14T09:11:21.823Z,13.55
2023-02-14T09:13:50.668Z,13.15
2023-02-14T09:16:20.430Z,13.85
2023-02-14T09:18:48.806Z,13.50
2023-02-14T09:21:20.391Z,14.18
2023-02-14T09:23:48.132Z,13.10
2023-02-14T09:26:16.782Z,12.93
2023-02-14T09:28:45.593Z,13.48
2023-02-14T09:31:15.964Z,13.65
2023-02-14T09:33:45.829Z,13.63
2023-02-14T09:36:31.977Z,13.82
2023-02-14T09:38:59.236Z,14.57
2023-02-14T09:41:29.607Z,15.20
2023-02-14T09:44:03.924Z,14.43
2023-02-14T09:46:42.942Z,14.27
2023-02-14T09:49:17.244Z,14.30
2023-02-14T09:51:49.975Z,14.73
2023-02-14T09:54:22.916Z,14.27
2023-02-14T09:57:23.018Z,15.10
2023-02-14T09:59:57.270Z,14.95
2023-02-14T10:02:49.295Z,15.10
2023-02-14T10:05:28.948Z,15.18
2023-02-14T10:08:01.772Z,14.90
2023-02-14T10:10:38.673Z,15.57
2023-02-14T10:13:40.700Z,15.02
2023-02-14T10:16:26.836Z,15.40
2023-02-14T10:19:02.776Z,15.88
2023-02-14T10:21:51.775Z,15.80
2023-02-14T10:24:27.400Z,15.60
2023-02-14T10:27:11.797Z,15.40
2023-02-14T10:29:39.951Z,15.55
2023-02-14T10:32:17.328Z,16.85
2023-02-14T10:34:53.460Z,15.73
2023-02-14T10:38:05.330Z,16.40
2023-02-14T10:41:02.434Z,16.08
2023-02-14T10:43:48.544Z,15.75
2023-02-14T10:46:40.911Z,16.02
2023-02-14T10:49:34.236Z,16.52
2023-02-14T10:52:32.251Z,16.58
2023-02-14T10:55:08.376Z,15.02
2023-02-14T10:57:41.167Z,15.30
2023-02-14T11:00:17.196Z,16.98
2023-02-14T11:02:47.577Z,16.10
2023-02-14T11:05:46.629Z,15.40
2023-02-14T11:08:27.005Z,15.85
2023-02-14T11:11:02.226Z,15.13
2023-02-14T11:13:38.677Z,15.88
2023-02-14T11:16:12.247Z,14.85
2023-02-14T11:18:41.151Z,15.30
2023-02-14T11:21:14.333Z,15.07
2023-02-14T11:23:44.924Z,15.52
2023-02-14T11:26:25.204Z,15.20
2023-02-14T11:28:59.331Z,14.85
2023-02-14T11:31:38.539Z,15.57
2023-02-14T11:34:24.685Z,15.02
2023-02-14T11:36:51.971Z,14.77
2023-02-14T11:39:32.663Z,15.52
2023-02-14T11:42:04.404Z,15.90
2023-02-14T11:44:36.144Z,15.07
2023-02-14T11:47:28.467Z,15.38
2023-02-14T11:50:01.697Z,15.32
2023-02-14T11:52:30.564Z,16.02
2023-02-14T11:54:59.252Z,15.07
2023-02-14T11:57:35.284Z,15.90
2023-02-14T12:00:11.614Z,15.02
2023-02-14T12:02:42.351Z,14.35
2023-02-14T12:05:26.169Z,14.93
2023-02-14T12:08:03.260Z,15.93
2023-02-14T12:10:33.422Z,14.73
2023-02-14T12:13:22.417Z,15.40
2023-02-14T12:15:52.087Z,14.30
2023-02-14T12:18:38.224Z,14.43
2023-02-14T12:21:26.601Z,15.77
2023-02-14T12:24:19.009Z,14.55
2023-02-14T12:27:28.112Z,14.48
2023-02-14T12:30:03.682Z,14.85
2023-02-14T12:32:32.601Z,14.70
2023-02-14T12:35:18.663Z,14.68
2023-02-14T12:37:48.767Z,14.30
2023-02-14T12:40:42.799Z,13.43
2023-02-14T12:43:21.972Z,14.10
2023-02-14T12:46:34.341Z,13.68
2023-02-14T12:49:22.475Z,13.70
2023-02-14T12:52:04.107Z,12.90
2023-02-14T12:55:01.622Z,13.68
2023-02-14T12:57:49.083Z,13.38
2023-02-14T13:00:23.205Z,13.98
2023-02-14T13:03:11.456Z,13.52
2023-02-14T13:05:58.557Z,13.77
2023-02-14T13:08:43.543Z,13.55
2023-02-14T13:14:25.565Z,13.43
2023-02-14T13:17:27.329Z,13.65
2023-02-14T13:20:12.100Z,12.30
2023-02-14T13:22:41.214Z,13.93
2023-02-14T13:25:33.748Z,13.60
2023-02-14T13:28:05.731Z,13.43
2023-02-14T13:30:36.939Z,13.40
2023-02-14T13:33:09.519Z,13.77
2023-02-14T13:35:37.546Z,12.98
2023-02-14T13:38:12.164Z,13.15
2023-02-14T13:43:07.843Z,13.13
2023-02-14T13:45:35.196Z,12.68
2023-02-14T13:48:09.182Z,13.40
2023-02-14T13:50:49.795Z,13.52
2023-02-14T13:53:49.400Z,13.90
2023-02-14T13:56:16.624Z,12.85
2023-02-14T13:58:54.553Z,13.55
2023-02-14T14:01:34.381Z,12.98
2023-02-14T14:04:26.903Z,12.23
2023-02-14T14:07:16.761Z,12.90
2023-02-14T14:09:44.005Z,12.68
2023-02-14T14:12:29.399Z,12.90
2023-02-14T14:15:05.696Z,12.05
2023-02-14T14:17:37.230Z,11.60
2023-02-14T14:20:27.734Z,12.45
2023-02-14T14:22:57.725Z,13.25
2023-02-14T14:25:41.039Z,13.23
2023-02-14T14:28:18.306Z,13.55
2023-02-14T14:30:46.263Z,14.10
2023-02-14T14:33:26.869Z,13.52
2023-02-14T14:36:08.029Z,13.38
2023-02-14T14:38:46.482Z,13.82
2023-02-14T14:41:13.921Z,13.68
2023-02-14T14:43:42.284Z,13.55
2023-02-14T14:46:12.370Z,13.70
2023-02-14T14:48:42.707Z,14.70
2023-02-14T14:51:21.869Z,14.40
2023-02-14T14:54:05.816Z,14.52
2023-02-14T14:56:40.833Z,13.70
2023-02-14T14:59:30.167Z,14.85
2023-02-14T15:01:57.679Z,14.07
2023-02-14T15:04:33.720Z,14.80
2023-02-14T15:07:28.337Z,14.93
2023-02-14T15:09:55.657Z,14.13
2023-02-14T15:12:43.048Z,14.80
2023-02-14T15:15:16.753Z,14.27
2023-02-14T15:17:45.621Z,14.33
2023-02-14T15:20:23.127Z,14.55
2023-02-14T15:22:52.874Z,13.63
2023-02-14T15:25:48.006Z,13.35
2023-02-14T15:28:28.069Z,13.95
2023-02-14T15:31:01.836Z,13.15
2023-02-14T15:33:31.479Z,12.77
2023-02-14T15:36:04.309Z,14.13
2023-02-14T15:38:33.839Z,14.80
2023-02-14T15:41:01.708Z,14.15
2023-02-14T15:43:32.492Z,14.23
2023-02-14T15:46:14.354Z,13.32
2023-02-14T15:48:44.330Z,13.48
2023-02-14T15:51:19.781Z,12.95
2023-02-14T15:53:53.627Z,12.93
2023-02-14T15:56:24.995Z,12.82
2023-02-14T15:59:01.408Z,12.93
2023-02-14T16:01:30.352Z,11.82
2023-02-14T16:04:00.452Z,12.25
2023-02-14T16:06:44.980Z,12.02
2023-02-14T16:09:28.159Z,11.43
2023-02-14T16:11:55.538Z,11.57
2023-02-14T16:14:36.909Z,11.55
2023-02-14T16:17:11.698Z,11.75
2023-02-14T16:19:42.356Z,11.65
2023-02-14T16:22:25.136Z,11.65
2023-02-14T16:24:52.521Z,12.57
2023-02-14T16:27:19.781Z,11.07
2023-02-14T16:29:47.088Z,11.25
2023-02-14T16:32:20.174Z,10.40
2023-02-14T16:34:48.374Z,10.38
2023-02-14T16:37:25.117Z,9.88
2023-02-14T16:39:54.591Z,9.90
2023-02-14T16:42:22.006Z,10.25
2023-02-14T16:44:50.236Z,9.75
2023-02-14T16:47:20.692Z,9.88
2023-02-14T16:49:48.653Z,10.52
2023-02-14T16:52:23.822Z,10.32
2023-02-14T16:54:51.539Z,10.25
2023-02-14T16:57:23.855Z,10.13
2023-02-14T16:59:51.909Z,10.73
2023-02-14T17:02:19.612Z,11.82
2023-02-14T17:04:47.106Z,11.20
2023-02-14T17:07:16.023Z,11.05
2023-02-14T17:09:50.156Z,12.68
2023-02-14T17:12:24.640Z,12.93
2023-02-14T17:14:56.641Z,12.07
2023-02-14T17:17:24.580Z,13.32
2023-02-14T17:19:52.899Z,13.40
2023-02-14T17:22:20.843Z,13.55
2023-02-14T17:24:48.142Z,13.07
2023-02-14T17:27:15.410Z,14.30
2023-02-14T17:29:42.722Z,14.88
2023-02-14T17:32:13.704Z,13.40
2023-02-14T17:34:41.322Z,13.40
2023-02-14T17:37:08.681Z,13.95
2023-02-14T17:39:35.980Z,13.70
2023-02-14T17:42:03.847Z,13.80
2023-02-14T17:44:36.088Z,14.20
2023-02-14T17:47:04.801Z,14.55
2023-02-14T17:49:32.229Z,15.85
2023-02-14T17:51:59.525Z,14.07
2023-02-14T17:54:26.769Z,13.45
2023-02-14T17:56:54.174Z,14.23
2023-02-14T17:59:21.480Z,14.68
2023-02-14T18:01:48.913Z,15.35
2023-02-14T18:04:16.280Z,15.02
2023-02-14T18:06:43.688Z,14.70
2023-02-14T18:09:11.032Z,16.00
2023-02-14T18:11:40.402Z,14.85
2023-02-14T18:14:08.278Z,16.02
2023-02-14T18:16:38.663Z,15.80
2023-02-14T18:19:07.411Z,16.05
2023-02-14T18:21:36.827Z,16.67
2023-02-14T18:24:04.697Z,16.50
2023-02-14T18:26:32.791Z,16.17
2023-02-14T18:29:01.000Z,16.33
2023-02-14T18:31:28.324Z,16.63
2023-02-14T18:33:56.786Z,16.65
2023-02-14T18:36:26.748Z,16.58
2023-02-14T18:38:57.954Z,17.20
2023-02-14T18:41:26.381Z,17.70
2023-02-14T18:43:54.076Z,17.80
2023-02-14T18:46:27.190Z,17.98
2023-02-14T18:48:57.065Z,18.20
2023-02-14T18:51:29.840Z,18.48
2023-02-14T18:53:58.927Z,18.88
2023-02-14T18:56:29.069Z,19.65
2023-02-14T18:59:08.002Z,22.10
2023-02-14T19:01:38.066Z,21.13
2023-02-14T19:04:08.648Z,20.92
2023-02-14T19:06:36.635Z,22.33
2023-02-14T19:09:07.731Z,21.88
2023-02-14T19:11:35.074Z,21.95
2023-02-14T19:14:03.291Z,22.08
2023-02-14T19:16:36.756Z,22.33
2023-02-14T19:19:04.701Z,22.00
2023-02-14T19:21:34.371Z,22.58
2023-02-14T19:24:03.822Z,22.15
2023-02-14T19:26:34.683Z,21.40
2023-02-14T19:29:05.148Z,21.05
2023-02-14T19:31:36.382Z,22.48
2023-02-14T19:34:06.230Z,21.92
2023-02-14T19:36:36.306Z,21.85
2023-02-14T19:39:04.506Z,21.08
2023-02-14T19:41:34.517Z,21.92
2023-02-14T19:44:04.784Z,21.67
2023-02-14T19:46:33.396Z,22.02
2023-02-14T19:49:01.652Z,21.65
2023-02-14T19:51:35.964Z,22.02
2023-02-14T19:54:06.107Z,22.10
2023-02-14T19:56:36.865Z,20.73
2023-02-14T19:59:09.047Z,21.17
2023-02-14T20:01:46.327Z,21.17
2023-02-14T20:04:17.521Z,21.08
2023-02-14T20:06:46.181Z,21.42
2023-02-14T20:09:14.215Z,21.67
2023-02-14T20:11:50.075Z,22.05
2023-02-14T20:14:29.372Z,21.15
2023-02-14T20:16:58.811Z,21.73
2023-02-14T20:19:32.105Z,22.38
2023-02-14T20:22:00.016Z,22.35
2023-02-14T20:24:30.905Z,21.92
2023-02-14T20:26:58.606Z,22.48
2023-02-14T20:29:26.719Z,22.75
2023-02-14T20:31:58.210Z,22.35
2023-02-14T20:34:26.289Z,21.60
2023-02-14T20:36:56.356Z,21.77
2023-02-14T20:39:29.196Z,21.65
2023-02-14T20:41:56.707Z,21.73
2023-02-14T20:44:24.266Z,22.35
2023-02-14T20:46:54.284Z,20.90
2023-02-14T20:49:23.036Z,21.75
2023-02-14T20:51:51.561Z,22.10
2023-02-14T20:54:21.042Z,21.75
2023-02-14T20:56:50.769Z,21.70
2023-02-14T20:59:24.298Z,22.35
2023-02-14T21:01:51.607Z,22.08
2023-02-14T21:04:18.958Z,22.45
2023-02-14T21:06:48.458Z,22.80
2023-02-14T21:09:18.514Z,21.45
2023-02-14T21:11:45.796Z,23.00
2023-02-14T21:14:13.195Z,22.38
2023-02-14T21:16:40.487Z,22.67
2023-02-14T21:19:07.720Z,22.92
2023-02-14T21:21:37.211Z,21.50
2023-02-14T21:24:14.481Z,21.60
2023-02-14T21:26:42.735Z,23.20
2023-02-14T21:29:10.624Z,23.80
2023-02-14T21:31:38.652Z,22.70
2023-02-14T21:34:06.401Z,21.98
2023-02-14T21:36:38.045Z,21.58
2023-02-14T21:39:06.612Z,21.70
2023-02-14T21:41:35.020Z,21.85
2023-02-14T21:44:03.692Z,22.05
2023-02-14T21:46:35.699Z,21.33
2023-02-14T21:49:24.365Z,21.77
2023-02-14T21:51:51.893Z,22.30
2023-02-14T21:54:19.600Z,23.35
2023-02-14T21:56:47.625Z,22.88
2023-02-14T21:59:15.011Z,22.85
2023-02-14T22:01:43.241Z,22.40
2023-02-14T22:04:12.230Z,23.00
2023-02-14T22:06:41.834Z,21.98
2023-02-14T22:09:10.899Z,23.20
2023-02-14T22:11:38.266Z,22.70
2023-02-14T22:14:05.636Z,22.98
2023-02-14T22:16:33.027Z,23.38
2023-02-14T22:19:00.282Z,23.77
2023-02-14T22:21:28.492Z,24.63
2023-02-14T22:23:56.463Z,23.40
2023-02-14T22:26:38.621Z,23.80
2023-02-14T22:29:07.929Z,23.20
2023-02-14T22:31:41.220Z,23.95
2023-02-14T22:34:11.296Z,23.10
2023-02-14T22:36:38.585Z,23.17
2023-02-14T22:39:06.082Z,23.75
2023-02-14T22:41:37.664Z,24.13
2023-02-14T22:44:06.090Z,23.27
2023-02-14T22:46:36.717Z,24.25
2023-02-14T22:49:04.252Z,24.17
2023-02-14T22:51:37.109Z,24.63
2023-02-14T22:54:07.797Z,23.63
2023-02-14T22:56:38.952Z,23.75
2023-02-14T22:59:08.948Z,23.30
2023-02-14T23:01:36.554Z,23.35
2023-02-14T23:04:04.999Z,24.42
2023-02-14T23:06:35.167Z,23.15
2023-02-14T23:09:07.430Z,22.75
2023-02-14T23:11:36.958Z,22.67
2023-02-14T23:14:23.502Z,24.52
2023-02-14T23:17:26.268Z,23.83
2023-02-14T23:20:12.002Z,23.83
2023-02-14T23:22:41.053Z,23.58
2023-02-14T23:25:11.434Z,24.17
2023-02-14T23:27:41.921Z,23.40
2023-02-14T23:30:14.946Z,23.55
2023-02-14T23:32:42.334Z,24.40
2023-02-14T23:35:10.364Z,22.35
2023-02-14T23:37:38.343Z,22.90
2023-02-14T23:40:06.747Z,25.02
2023-02-14T23:42:34.039Z,23.77
2023-02-14T23:45:21.342Z,22.73
2023-02-14T23:47:48.682Z,23.58
2023-02-14T23:50:16.080Z,24.27
2023-02-14T23:52:44.547Z,24.25
2023-02-14T23:55:12.350Z,23.92
2023-02-14T23:57:39.814Z,23.65
